createdAt,value
2022-11-29T00:06:55.348Z,19.55
2022-11-29T00:14:18.754Z,19.45
2022-11-29T00:21:45.787Z,19.5
2022-11-29T00:29:06.729Z,19.49
2022-11-29T00:36:33.820Z,19.49
2022-11-29T00:44:03.561Z,19.5
2022-11-29T00:51:23.206Z,19.49
2022-11-29T00:58:50.002Z,19.45
2022-11-29T01:06:15.397Z,19.47
2022-11-29T01:13:53.838Z,19.42
2022-11-29T01:21:33.937Z,19.49
2022-11-29T01:29:01.847Z,19.45
2022-11-29T01:36:27.652Z,19.46
2022-11-29T01:43:53.807Z,19.47
2022-11-29T01:51:34.883Z,19.38
2022-11-29T01:59:14.393Z,19.43
2022-11-29T02:06:52.493Z,19.37
2022-11-29T02:14:41.836Z,19.4
2022-11-29T02:22:41.861Z,19.31
2022-11-29T02:30:41.874Z,19.38
2022-11-29T02:38:42.562Z,19.38
2022-11-29T02:46:34.090Z,19.37
2022-11-29T02:54:37.309Z,19.32
2022-11-29T03:02:31.509Z,19.45
2022-11-29T03:10:35.377Z,19.46
2022-11-29T03:18:21.215Z,19.43
2022-11-29T03:26:15.540Z,19.36
2022-11-29T03:34:24.648Z,19.38
2022-11-29T03:42:27.337Z,19.37
2022-11-29T03:50:23.452Z,19.41
2022-11-29T03:58:26.117Z,19.46
2022-11-29T04:06:15.728Z,19.42
2022-11-29T04:13:59.343Z,19.33
2022-11-29T04:21:46.076Z,19.4
2022-11-29T04:29:48.539Z,19.34
2022-11-29T04:37:46.858Z,19.21
2022-11-29T04:45:45.907Z,19.46
2022-11-29T04:53:58.848Z,19.55
2022-11-29T05:02:07.355Z,19.65
2022-11-29T05:10:06.715Z,19.56
2022-11-29T05:17:18.741Z,20.01
2022-11-29T05:24:15.259Z,20.3
2022-11-29T05:31:10.664Z,20.34
2022-11-29T05:38:11.541Z,20.33
2022-11-29T05:45:07.438Z,20.35
2022-11-29T05:52:26.071Z,20.48
2022-11-29T05:59:39.783Z,20.43
2022-11-29T06:06:40.781Z,20.5
2022-11-29T06:13:38.953Z,21.39
2022-11-29T06:20:42.129Z,22.19
2022-11-29T06:27:36.754Z,22.27
2022-11-29T06:34:38.540Z,22.46
2022-11-29T06:41:26.254Z,22.71
2022-11-29T06:48:05.537Z,22.84
2022-11-29T06:55:00.754Z,22.94
2022-11-29T07:02:03.615Z,22.79
2022-11-29T07:09:08.511Z,22.74
2022-11-29T07:16:14.529Z,22.62
2022-11-29T07:23:16.776Z,22.46
2022-11-29T07:30:14.027Z,22.51
2022-11-29T07:37:24.370Z,22.56
2022-11-29T07:44:33.651Z,22.36
2022-11-29T07:51:49.459Z,22.16
2022-11-29T07:58:34.572Z,22.09
2022-11-29T08:05:21.728Z,21.93
2022-11-29T08:11:49.413Z,21.81
2022-11-29T08:18:23.585Z,21.67
2022-11-29T08:24:56.576Z,21.65
2022-11-29T08:31:35.618Z,21.4
2022-11-29T08:37:59.358Z,21.34
2022-11-29T08:44:26.916Z,21.26
2022-11-29T08:51:03.561Z,21.16
2022-11-29T08:57:39.621Z,21.2
2022-11-29T09:04:09.593Z,21.18
2022-11-29T09:10:48.136Z,21.25
2022-11-29T09:17:23.053Z,21.33
2022-11-29T09:23:57.618Z,21.47
2022-11-29T09:30:25.059Z,21.3
2022-11-29T09:36:59.716Z,21.27
2022-11-29T09:44:10.517Z,21.55
2022-11-29T09:52:29.703Z,21.04
2022-11-29T10:00:41.637Z,20.93
2022-11-29T10:08:54.128Z,20.97
2022-11-29T10:17:12.045Z,20.75
2022-11-29T10:25:42.251Z,20.68
2022-11-29T10:33:21.821Z,20.59
2022-11-29T10:41:38.753Z,20.57
2022-11-29T10:49:33.631Z,20.51
2022-11-29T10:57:27.389Z,20.47
2022-11-29T11:05:30.726Z,20.44
2022-11-29T11:13:48.795Z,20.43
2022-11-29T11:21:54.151Z,20.36
2022-11-29T11:29:58.619Z,20.36
2022-11-29T11:37:57.352Z,20.34
2022-11-29T11:46:17.924Z,20.48
2022-11-29T11:54:24.490Z,20.34
2022-11-29T12:02:18.465Z,20.28
2022-11-29T12:10:25.995Z,20.31
2022-11-29T12:18:46.380Z,20.26
2022-11-29T12:26:56.774Z,20.21
2022-11-29T12:35:02.416Z,20.13
2022-11-29T12:43:16.055Z,20.16
2022-11-29T12:51:19.051Z,20.18
2022-11-29T12:59:41.250Z,20.18
2022-11-29T13:07:53.887Z,20.12
2022-11-29T13:16:08.257Z,20.09
2022-11-29T13:24:43.015Z,20.23
2022-11-29T13:32:41.721Z,20.05
2022-11-29T13:41:07.917Z,20.08
2022-11-29T13:49:40.232Z,20.02
2022-11-29T13:58:00.901Z,20.1
2022-11-29T14:06:00.802Z,20.03
2022-11-29T14:14:25.483Z,20.11
2022-11-29T14:22:22.236Z,19.97
2022-11-29T14:30:16.110Z,20.16
2022-11-29T14:38:15.574Z,20.04
2022-11-29T14:46:18.244Z,19.89
2022-11-29T14:54:23.578Z,20.02
2022-11-29T15:02:27.688Z,19.9
2022-11-29T15:10:30.108Z,19.99
2022-11-29T15:18:34.615Z,19.99
2022-11-29T15:26:40.244Z,19.94
2022-11-29T15:34:42.136Z,19.93
2022-11-29T15:42:47.309Z,19.89
2022-11-29T15:50:22.787Z,19.89
2022-11-29T15:58:12.104Z,19.94
2022-11-29T16:06:06.608Z,20.12
2022-11-29T16:14:12.247Z,20.25
2022-11-29T16:22:01.370Z,20.08
2022-11-29T16:31:02.739Z,20.24
2022-11-29T16:39:04.984Z,20.25
2022-11-29T16:46:56.214Z,20.15
2022-11-29T16:54:57.942Z,20.19
2022-11-29T17:02:53.189Z,20.15
2022-11-29T17:10:47.603Z,20.25
2022-11-29T17:18:31.725Z,20.19
2022-11-29T17:26:18.033Z,20.16
2022-11-29T17:34:04.169Z,20.14
2022-11-29T17:41:32.758Z,20.1
2022-11-29T17:49:00.107Z,20.06
2022-11-29T17:56:29.474Z,19.79
2022-11-29T18:04:08.422Z,19.75
2022-11-29T18:11:50.737Z,19.64
2022-11-29T18:19:17.831Z,19.62
2022-11-29T18:26:53.037Z,19.67
2022-11-29T18:34:15.680Z,19.55
2022-11-29T18:41:47.185Z,19.55
2022-11-29T18:49:12.318Z,19.55
2022-11-29T18:56:38.345Z,19.52
2022-11-29T19:04:12.295Z,19.51
2022-11-29T19:11:27.206Z,19.48
2022-11-29T19:19:09.631Z,19.69
2022-11-29T19:27:00.298Z,19.95
2022-11-29T19:34:49.364Z,19.99
2022-11-29T19:42:35.619Z,20.02
2022-11-29T19:50:17.287Z,20.13
2022-11-29T19:57:57.100Z,19.9
2022-11-29T20:05:30.054Z,19.7
2022-11-29T20:13:07.975Z,19.72
2022-11-29T20:20:51.759Z,19.67
2022-11-29T20:28:32.211Z,19.63
2022-11-29T20:36:39.364Z,19.72
2022-11-29T20:44:50.549Z,19.53
2022-11-29T20:52:43.881Z,19.55
2022-11-29T21:00:30.670Z,19.53
2022-11-29T21:08:07.738Z,19.51
2022-11-29T21:15:26.939Z,19.49
2022-11-29T21:23:03.718Z,19.49
2022-11-29T21:31:05.405Z,19.43
2022-11-29T21:38:42.211Z,19.49
2022-11-29T21:45:56.217Z,19.48
2022-11-29T21:53:08.734Z,19.41
2022-11-29T22:00:26.249Z,19.47
2022-11-29T22:07:35.909Z,19.47
2022-11-29T22:14:54.339Z,19.45
2022-11-29T22:22:15.733Z,19.46
2022-11-29T22:29:39.732Z,19.44
2022-11-29T22:36:57.226Z,19.39
2022-11-29T22:44:14.117Z,19.39
2022-11-29T22:51:27.355Z,19.4
2022-11-29T22:58:40.330Z,19.42
2022-11-29T23:06:04.340Z,19.45
2022-11-29T23:13:35.190Z,19.38
2022-11-29T23:20:51.205Z,19.4
2022-11-29T23:28:16.129Z,19.38
2022-11-29T23:35:06.133Z,19.37
2022-11-29T23:42:35.791Z,19.46
2022-11-29T23:49:52.503Z,19.43
2022-11-29T23:57:29.635Z,19.54
